createdAt,value
2022-09-30T00:07:59.807Z,100534.59
2022-09-30T00:18:21.162Z,100532.84
2022-09-30T00:28:43.250Z,100548.00
2022-09-30T00:39:05.068Z,100551.69
2022-09-30T00:49:26.424Z,100543.34
2022-09-30T00:59:50.040Z,100554.22
2022-09-30T01:10:11.440Z,100553.91
2022-09-30T01:20:52.801Z,100546.94
2022-09-30T01:31:14.217Z,100552.84
2022-09-30T01:41:44.490Z,100547.84
2022-09-30T01:52:09.840Z,100541.91
2022-09-30T02:02:33.308Z,100540.66
2022-09-30T02:13:15.409Z,100552.19
2022-09-30T02:23:42.015Z,100556.03
2022-09-30T02:34:09.125Z,100557.47
2022-09-30T02:44:31.871Z,100560.13
2022-09-30T02:54:56.279Z,100570.72
2022-09-30T03:05:17.685Z,100587.34
2022-09-30T03:15:49.035Z,100589.81
2022-09-30T03:26:13.506Z,100594.63
2022-09-30T03:36:34.821Z,100600.19
2022-09-30T03:46:59.195Z,100609.00
2022-09-30T03:57:20.681Z,100612.75
2022-09-30T04:07:42.048Z,100618.34
2022-09-30T04:18:04.303Z,100629.88
2022-09-30T04:28:26.289Z,100643.53
2022-09-30T04:38:47.680Z,100648.16
2022-09-30T04:49:09.693Z,100661.00
2022-09-30T04:59:31.275Z,100663.06
2022-09-30T05:09:53.459Z,100681.28
2022-09-30T05:20:18.857Z,100680.72
2022-09-30T05:30:43.537Z,100679.81
2022-09-30T05:41:08.986Z,100694.69
2022-09-30T05:51:31.135Z,100700.97
2022-09-30T06:01:52.563Z,100711.94
2022-09-30T06:12:16.823Z,100726.16
2022-09-30T06:22:38.588Z,100727.91
2022-09-30T06:33:01.358Z,100724.94
2022-09-30T06:43:22.745Z,100727.38
2022-09-30T06:53:44.154Z,100744.09
2022-09-30T07:04:09.671Z,100756.34
2022-09-30T07:14:32.450Z,100762.66
2022-09-30T07:24:54.348Z,100757.78
2022-09-30T07:35:15.845Z,100755.63
2022-09-30T07:45:37.750Z,100752.84
2022-09-30T07:56:02.658Z,100752.31
2022-09-30T08:06:25.663Z,100754.81
2022-09-30T08:16:47.093Z,100755.28
2022-09-30T08:27:08.511Z,100769.59
2022-09-30T08:37:30.006Z,100776.38
2022-09-30T08:47:57.182Z,100782.59
2022-09-30T08:58:24.734Z,100787.81
2022-09-30T09:08:49.173Z,100795.81
2022-09-30T09:19:12.637Z,100794.81
2022-09-30T09:29:49.008Z,100799.53
2022-09-30T09:40:15.315Z,100791.19
2022-09-30T09:50:56.905Z,100791.94
2022-09-30T10:01:34.497Z,100800.59
2022-09-30T10:12:05.200Z,100789.75
2022-09-30T10:22:31.141Z,100791.19
2022-09-30T10:32:52.576Z,100786.28
2022-09-30T10:43:36.910Z,100780.56
2022-09-30T10:53:58.325Z,100775.41
2022-09-30T11:04:19.648Z,100786.31
2022-09-30T11:14:51.480Z,100802.72
2022-09-30T11:25:17.461Z,100800.53
2022-09-30T11:35:44.050Z,100790.66
2022-09-30T11:46:17.946Z,100769.03
2022-09-30T11:56:58.264Z,100773.72
2022-09-30T12:07:22.196Z,100756.69
2022-09-30T12:17:44.059Z,100757.97
2022-09-30T12:28:25.504Z,100756.34
2022-09-30T12:39:06.373Z,100733.44
2022-09-30T12:49:29.379Z,100737.31
2022-09-30T12:59:53.556Z,100733.03
2022-09-30T13:10:29.056Z,100730.78
2022-09-30T13:20:59.424Z,100722.31
2022-09-30T13:31:24.748Z,100712.25
2022-09-30T13:41:50.508Z,100707.03
2022-09-30T13:52:27.426Z,100714.63
2022-09-30T14:03:06.610Z,100701.47
2022-09-30T14:13:41.294Z,100691.75
2022-09-30T14:24:15.028Z,100684.84
2022-09-30T14:34:36.526Z,100683.06
2022-09-30T14:45:04.372Z,100675.06
2022-09-30T14:55:35.635Z,100664.66
2022-09-30T15:05:58.144Z,100651.13
2022-09-30T15:16:24.211Z,100655.13
2022-09-30T15:26:47.139Z,100654.69
2022-09-30T15:37:17.441Z,100650.22
2022-09-30T15:47:53.187Z,100657.25
2022-09-30T15:58:27.131Z,100655.09
2022-09-30T16:08:53.805Z,100643.28
2022-09-30T16:19:17.356Z,100641.28
2022-09-30T16:29:38.758Z,100654.34
2022-09-30T16:40:05.193Z,100658.72
2022-09-30T16:50:35.552Z,100663.22
2022-09-30T17:01:00.231Z,100653.88
2022-09-30T17:11:26.889Z,100652.19
2022-09-30T17:21:48.270Z,100671.16
2022-09-30T17:32:09.858Z,100660.75
2022-09-30T17:42:49.959Z,100647.19
2022-09-30T17:53:16.851Z,100652.63
2022-09-30T18:03:38.196Z,100639.34
2022-09-30T18:14:00.061Z,100632.03
2022-09-30T18:24:41.378Z,100634.56
2022-09-30T18:35:06.894Z,100626.41
2022-09-30T18:45:32.726Z,100622.44
2022-09-30T18:55:54.191Z,100618.25
2022-09-30T19:06:15.856Z,100601.44
2022-09-30T19:16:38.957Z,100592.69
2022-09-30T19:27:00.622Z,100581.75
2022-09-30T19:37:27.669Z,100564.63
2022-09-30T19:47:49.232Z,100562.56
2022-09-30T19:58:10.595Z,100545.50
2022-09-30T20:08:33.549Z,100530.63
2022-09-30T20:18:54.887Z,100525.38
2022-09-30T20:29:19.649Z,100499.78
2022-09-30T20:39:42.224Z,100504.00
2022-09-30T20:50:04.429Z,100490.28
2022-09-30T21:00:25.809Z,100479.72
2022-09-30T21:10:47.205Z,100465.22
2022-09-30T21:21:10.704Z,100458.84
2022-09-30T21:31:33.495Z,100461.44
2022-09-30T21:41:55.465Z,100439.53
2022-09-30T21:52:16.830Z,100429.09
2022-09-30T22:02:38.220Z,100419.34
2022-09-30T22:12:59.667Z,100415.28
2022-09-30T22:23:21.046Z,100398.44
2022-09-30T22:34:01.058Z,100402.94
2022-09-30T22:44:25.480Z,100392.25
2022-09-30T22:54:46.882Z,100378.44
2022-09-30T23:05:08.374Z,100354.69
2022-09-30T23:15:30.094Z,100349.47
2022-09-30T23:26:01.869Z,100330.66
2022-09-30T23:36:26.486Z,100314.84
2022-09-30T23:47:06.704Z,100292.59
2022-09-30T23:57:28.057Z,100281.03
